Time;durP1;ratioP1;P1;durP2;ratioP2;P2;SDS_P1;SDS_P2;PMS_P1;PMS_P2;Temp;Humidity;BMP_temperature;BMP_pressure;BME280_temperature;BME280_humidity;BME280_pressure;Samples;Min_cycle;Max_cycle;Signal;HPM_P1;HPM_P2
2023/12/26 00:02:23;;;;;;;1.60;1.20;;;;;;;;;;4999223;28;20214;-83
2023/12/26 00:04:49;;;;;;;2.13;1.17;;;;;;;;;;4980556;28;20210;-83
2023/12/26 00:07:15;;;;;;;1.30;1.20;;;;;;;;;;4961529;28;20229;-83
2023/12/26 00:09:42;;;;;;;2.97;1.27;;;;;;;;;;4991294;28;20187;-83
2023/12/26 00:12:08;;;;;;;1.60;1.10;;;;;;;;;;4991573;28;20200;-83
2023/12/26 00:14:34;;;;;;;1.97;1.10;;;;;;;;;;4976461;28;20290;-83
2023/12/26 00:17:00;;;;;;;1.80;1.10;;;;;;;;;;4992829;28;20191;-83
2023/12/26 00:19:26;;;;;;;1.60;1.00;;;;;;;;;;4961530;28;20192;-83
2023/12/26 00:21:52;;;;;;;3.30;1.30;;;;;;;;;;4971130;28;21148;-83
2023/12/26 00:24:19;;;;;;;1.47;1.07;;;;;;;;;;4975321;28;20664;-84
2023/12/26 00:26:45;;;;;;;2.00;1.03;;;;;;;;;;4973506;28;20768;-83
2023/12/26 00:29:11;;;;;;;1.30;0.77;;;;;;;;;;4975961;28;20656;-84
2023/12/26 00:31:41;;;;;;;2.23;1.10;;;;;;;;;;4959401;28;20243;-83
2023/12/26 00:34:08;;;;;;;1.33;0.97;;;;;;;;;;4974107;28;20192;-83
2023/12/26 00:36:34;;;;;;;2.20;1.20;;;;;;;;;;4987547;28;20206;-83
2023/12/26 00:39:00;;;;;;;1.27;1.10;;;;;;;;;;4983642;28;20187;-83
2023/12/26 00:41:26;;;;;;;1.90;1.10;;;;;;;;;;4989382;28;20208;-83
2023/12/26 00:43:55;;;;;;;2.37;0.97;;;;;;;;;;4974606;28;20211;-84
2023/12/26 00:46:21;;;;;;;1.80;0.90;;;;;;;;;;4970170;28;20274;-83
2023/12/26 00:48:48;;;;;;;1.50;1.03;;;;;;;;;;4990803;28;20667;-83
2023/12/26 00:51:14;;;;;;;1.73;1.00;;;;;;;;;;4972916;28;20728;-83
2023/12/26 00:53:40;;;;;;;1.00;0.90;;;;;;;;;;4970653;28;20737;-83
2023/12/26 00:56:07;;;;;;;1.17;0.80;;;;;;;;;;4997515;28;20683;-83
2023/12/26 00:58:34;;;;;;;1.23;1.00;;;;;;;;;;4987283;28;20666;-84
2023/12/26 01:01:00;;;;;;;1.80;0.90;;;;;;;;;;4970453;28;20211;-84
2023/12/26 01:03:26;;;;;;;0.83;0.80;;;;;;;;;;4982294;28;20315;-83
2023/12/26 01:05:53;;;;;;;1.47;0.93;;;;;;;;;;4975675;28;20287;-84
2023/12/26 01:08:19;;;;;;;1.77;0.90;;;;;;;;;;4973020;28;20188;-83
2023/12/26 01:10:45;;;;;;;2.50;0.97;;;;;;;;;;4958253;28;20212;-83
2023/12/26 01:13:11;;;;;;;1.63;0.90;;;;;;;;;;4994572;28;20191;-83
2023/12/26 01:15:38;;;;;;;1.13;0.80;;;;;;;;;;4974944;28;20190;-83
2023/12/26 01:18:05;;;;;;;0.80;0.80;;;;;;;;;;4987260;28;20184;-83
2023/12/26 01:20:32;;;;;;;0.90;0.63;;;;;;;;;;4990914;28;20231;-83
2023/12/26 01:22:58;;;;;;;1.47;0.80;;;;;;;;;;4990008;28;20680;-83
2023/12/26 01:25:24;;;;;;;1.37;0.70;;;;;;;;;;4974259;28;20192;-83
2023/12/26 01:27:50;;;;;;;1.10;0.90;;;;;;;;;;4990606;28;20365;-83
2023/12/26 01:30:19;;;;;;;0.77;0.73;;;;;;;;;;4987714;28;20192;-83
2023/12/26 01:32:45;;;;;;;0.70;0.70;;;;;;;;;;4990787;28;20184;-83
2023/12/26 01:35:12;;;;;;;0.83;0.67;;;;;;;;;;4969897;28;20262;-83
2023/12/26 01:37:38;;;;;;;0.70;0.70;;;;;;;;;;4974859;28;20198;-84
2023/12/26 01:40:05;;;;;;;0.80;0.70;;;;;;;;;;4988766;28;20637;-84
2023/12/26 01:42:31;;;;;;;1.00;0.70;;;;;;;;;;4989811;28;20196;-83
2023/12/26 01:44:57;;;;;;;0.70;0.70;;;;;;;;;;4957926;28;20192;-83
2023/12/26 01:47:24;;;;;;;2.50;0.90;;;;;;;;;;4972910;28;20634;-83
2023/12/26 01:49:50;;;;;;;0.87;0.80;;;;;;;;;;4971311;28;20357;-84
2023/12/26 01:52:19;;;;;;;1.23;0.80;;;;;;;;;;4984116;28;20207;-83
2023/12/26 01:54:45;;;;;;;1.27;0.90;;;;;;;;;;4975465;28;20199;-84
2023/12/26 01:57:12;;;;;;;2.23;0.80;;;;;;;;;;4971962;28;20176;-83
2023/12/26 01:59:39;;;;;;;2.33;1.07;;;;;;;;;;4975023;28;20176;-84
2023/12/26 02:02:05;;;;;;;1.27;0.90;;;;;;;;;;4957663;28;20230;-83
2023/12/26 02:04:31;;;;;;;0.80;0.80;;;;;;;;;;4972230;28;20192;-83
2023/12/26 02:06:58;;;;;;;1.37;0.80;;;;;;;;;;4974052;28;20215;-83
2023/12/26 02:09:24;;;;;;;0.70;0.70;;;;;;;;;;4988636;28;20260;-84
2023/12/26 02:11:54;;;;;;;2.60;0.90;;;;;;;;;;4984997;28;20204;-84
2023/12/26 02:14:21;;;;;;;1.50;0.90;;;;;;;;;;4970303;28;20210;-83
2023/12/26 02:16:49;;;;;;;2.33;1.00;;;;;;;;;;4973017;28;20180;-83
2023/12/26 02:19:15;;;;;;;1.57;1.00;;;;;;;;;;4972151;28;20199;-84
2023/12/26 02:21:43;;;;;;;0.97;0.83;;;;;;;;;;4972518;28;20339;-84
2023/12/26 02:24:10;;;;;;;1.27;1.00;;;;;;;;;;4971377;28;20632;-83
2023/12/26 02:26:39;;;;;;;3.60;0.90;;;;;;;;;;4989524;28;20215;-83
2023/12/26 02:29:06;;;;;;;2.03;1.13;;;;;;;;;;4959756;28;20187;-84
2023/12/26 02:31:33;;;;;;;1.77;0.90;;;;;;;;;;4986113;28;20195;-84
2023/12/26 02:33:59;;;;;;;2.80;1.10;;;;;;;;;;4970477;28;20663;-83
2023/12/26 02:36:25;;;;;;;1.30;1.10;;;;;;;;;;4974049;28;20653;-84
2023/12/26 02:38:52;;;;;;;1.87;1.00;;;;;;;;;;4979235;28;20200;-84
2023/12/26 02:41:18;;;;;;;1.63;1.17;;;;;;;;;;4986832;28;20238;-84
2023/12/26 02:43:44;;;;;;;2.67;1.10;;;;;;;;;;4985720;28;20191;-84
2023/12/26 02:46:12;;;;;;;2.43;1.30;;;;;;;;;;4987512;28;20215;-83
2023/12/26 02:48:38;;;;;;;3.00;1.10;;;;;;;;;;4966576;28;20647;-84
2023/12/26 02:51:07;;;;;;;2.80;1.60;;;;;;;;;;4969770;28;20567;-83
2023/12/26 02:53:34;;;;;;;7.23;2.00;;;;;;;;;;4987713;28;20196;-84
2023/12/26 02:56:00;;;;;;;3.60;1.83;;;;;;;;;;4986641;28;20214;-83
2023/12/26 02:58:27;;;;;;;5.73;2.10;;;;;;;;;;4971778;28;20638;-84
2023/12/26 03:00:53;;;;;;;4.17;1.87;;;;;;;;;;4977163;28;20215;-83
2023/12/26 03:03:19;;;;;;;5.70;2.27;;;;;;;;;;4988946;28;20223;-83
2023/12/26 03:05:45;;;;;;;4.63;2.00;;;;;;;;;;4972299;28;20188;-84
2023/12/26 03:08:11;;;;;;;6.60;2.10;;;;;;;;;;4972088;28;20278;-83
2023/12/26 03:10:37;;;;;;;4.33;1.77;;;;;;;;;;4967799;28;20255;-84
2023/12/26 03:13:04;;;;;;;4.90;1.90;;;;;;;;;;4972215;28;20180;-83
2023/12/26 03:15:30;;;;;;;5.53;1.87;;;;;;;;;;4990923;28;20198;-83
2023/12/26 03:17:56;;;;;;;4.97;1.70;;;;;;;;;;4971146;28;20180;-83
2023/12/26 03:20:22;;;;;;;4.60;1.83;;;;;;;;;;4972691;28;20192;-82
2023/12/26 03:22:48;;;;;;;4.03;1.70;;;;;;;;;;4976839;28;20588;-83
2023/12/26 03:25:16;;;;;;;5.87;2.00;;;;;;;;;;4977325;28;20437;-83
2023/12/26 03:27:42;;;;;;;5.40;1.90;;;;;;;;;;4987388;28;20694;-82
2023/12/26 03:30:09;;;;;;;6.33;2.00;;;;;;;;;;5000122;28;20180;-83
2023/12/26 03:32:35;;;;;;;4.03;1.90;;;;;;;;;;5013098;28;20192;-82
2023/12/26 03:35:02;;;;;;;5.27;1.60;;;;;;;;;;4979826;28;20219;-83
2023/12/26 03:37:28;;;;;;;4.87;1.57;;;;;;;;;;5009222;28;20198;-82
2023/12/26 03:39:54;;;;;;;4.80;1.73;;;;;;;;;;4989186;28;20294;-83
2023/12/26 03:42:21;;;;;;;6.77;2.10;;;;;;;;;;5003818;28;20216;-83
2023/12/26 03:44:47;;;;;;;5.43;1.90;;;;;;;;;;4973125;28;20191;-83
2023/12/26 03:47:14;;;;;;;6.10;2.13;;;;;;;;;;4995272;28;20258;-83
2023/12/26 03:49:40;;;;;;;5.63;1.80;;;;;;;;;;4967095;28;20286;-84
2023/12/26 03:52:06;;;;;;;5.10;1.77;;;;;;;;;;4981337;28;20210;-84
2023/12/26 03:54:32;;;;;;;5.63;2.00;;;;;;;;;;4986324;28;20218;-83
2023/12/26 03:56:59;;;;;;;5.33;1.90;;;;;;;;;;4980783;28;20234;-83
2023/12/26 03:59:25;;;;;;;5.80;1.90;;;;;;;;;;4972893;28;20376;-84
2023/12/26 04:01:51;;;;;;;5.30;2.00;;;;;;;;;;4968988;28;20239;-83
2023/12/26 04:04:17;;;;;;;5.90;2.10;;;;;;;;;;4966508;28;20200;-84
2023/12/26 04:06:43;;;;;;;4.53;1.77;;;;;;;;;;4976422;28;20215;-84
2023/12/26 04:09:10;;;;;;;6.27;2.00;;;;;;;;;;4998636;28;20203;-83
2023/12/26 04:11:37;;;;;;;6.23;2.10;;;;;;;;;;4979146;28;20253;-83
2023/12/26 04:14:04;;;;;;;9.90;2.20;;;;;;;;;;4977587;28;20195;-83
2023/12/26 04:16:31;;;;;;;5.33;2.00;;;;;;;;;;4980916;28;20206;-83
2023/12/26 04:18:57;;;;;;;6.93;3.27;;;;;;;;;;4979618;28;20192;-83
2023/12/26 04:21:23;;;;;;;8.47;2.93;;;;;;;;;;4988633;28;20212;-83
2023/12/26 04:23:49;;;;;;;9.63;2.60;;;;;;;;;;4974210;28;20211;-83
2023/12/26 04:26:15;;;;;;;6.93;2.50;;;;;;;;;;4975102;28;20211;-83
2023/12/26 04:28:42;;;;;;;7.67;2.40;;;;;;;;;;4990233;28;20263;-83
2023/12/26 04:31:08;;;;;;;7.40;2.10;;;;;;;;;;4975241;28;20200;-83
2023/12/26 04:33:34;;;;;;;5.77;2.00;;;;;;;;;;4987966;28;20180;-84
2023/12/26 04:36:00;;;;;;;7.33;2.33;;;;;;;;;;4976884;28;20188;-82
2023/12/26 04:38:27;;;;;;;5.10;1.80;;;;;;;;;;4978614;28;20196;-84
2023/12/26 04:40:54;;;;;;;6.83;2.07;;;;;;;;;;4990696;28;20219;-84
2023/12/26 04:43:21;;;;;;;7.00;2.10;;;;;;;;;;4977168;28;20215;-83
2023/12/26 04:45:47;;;;;;;6.33;2.03;;;;;;;;;;4976147;28;20198;-84
2023/12/26 04:48:13;;;;;;;5.40;1.80;;;;;;;;;;4977726;28;20226;-84
2023/12/26 04:50:39;;;;;;;7.50;2.37;;;;;;;;;;4974714;28;20208;-84
2023/12/26 04:53:05;;;;;;;9.63;2.13;;;;;;;;;;4989943;28;20285;-84
2023/12/26 04:55:33;;;;;;;5.37;2.00;;;;;;;;;;4994194;28;20208;-84
2023/12/26 04:57:59;;;;;;;9.60;2.27;;;;;;;;;;4980952;28;20198;-84
2023/12/26 05:00:25;;;;;;;5.57;1.80;;;;;;;;;;4973939;28;20200;-84
2023/12/26 05:02:51;;;;;;;5.50;1.93;;;;;;;;;;4975402;28;21297;-84
2023/12/26 05:05:19;;;;;;;4.83;1.90;;;;;;;;;;4993454;28;20188;-84
2023/12/26 05:07:45;;;;;;;6.80;1.90;;;;;;;;;;4976845;28;20211;-83
2023/12/26 05:10:11;;;;;;;8.50;2.00;;;;;;;;;;4978396;28;20188;-83
2023/12/26 05:12:37;;;;;;;7.43;2.23;;;;;;;;;;4979104;28;20192;-82
2023/12/26 05:15:03;;;;;;;6.37;1.93;;;;;;;;;;4977717;28;20613;-82
2023/12/26 05:17:31;;;;;;;4.63;2.00;;;;;;;;;;4961131;28;20241;-82
2023/12/26 05:20:00;;;;;;;5.33;2.03;;;;;;;;;;4978427;28;20274;-82
2023/12/26 05:22:26;;;;;;;6.20;2.10;;;;;;;;;;4993039;28;20222;-82
2023/12/26 05:24:53;;;;;;;5.73;1.83;;;;;;;;;;4977122;28;20200;-81
2023/12/26 05:27:20;;;;;;;7.87;2.20;;;;;;;;;;4977087;28;20233;-83
2023/12/26 05:29:46;;;;;;;6.63;2.20;;;;;;;;;;4993577;28;20206;-82
2023/12/26 05:32:12;;;;;;;7.97;2.10;;;;;;;;;;4974299;28;20208;-82
2023/12/26 05:34:38;;;;;;;5.17;2.07;;;;;;;;;;4976211;28;20230;-83
2023/12/26 05:37:05;;;;;;;8.07;2.20;;;;;;;;;;4992758;28;20192;-82
2023/12/26 05:39:31;;;;;;;5.33;1.70;;;;;;;;;;4989486;28;20291;-82
2023/12/26 05:41:58;;;;;;;7.90;2.10;;;;;;;;;;4990623;28;20212;-83
2023/12/26 05:44:24;;;;;;;5.47;2.00;;;;;;;;;;4974371;28;20199;-83
2023/12/26 05:46:50;;;;;;;7.07;2.03;;;;;;;;;;4975569;28;20307;-83
2023/12/26 05:49:16;;;;;;;7.13;2.23;;;;;;;;;;4975832;28;20188;-83
2023/12/26 05:51:43;;;;;;;9.73;2.03;;;;;;;;;;4991498;28;20297;-83
2023/12/26 05:54:09;;;;;;;6.20;1.90;;;;;;;;;;4985293;28;20192;-82
2023/12/26 05:56:35;;;;;;;5.37;2.00;;;;;;;;;;4959365;28;20184;-83
2023/12/26 05:59:02;;;;;;;7.90;2.20;;;;;;;;;;4973380;28;20239;-83
2023/12/26 06:01:36;;;;;;;7.87;2.30;;;;;;;;;;5071045;28;20593;-83
2023/12/26 06:04:02;;;;;;;7.63;1.80;;;;;;;;;;5028082;28;20957;-83
2023/12/26 06:06:29;;;;;;;4.90;1.80;;;;;;;;;;5027584;28;20194;-82
2023/12/26 06:08:55;;;;;;;8.43;2.20;;;;;;;;;;5044608;28;20181;-82
2023/12/26 06:11:22;;;;;;;7.33;2.00;;;;;;;;;;5008390;28;20241;-83
2023/12/26 06:13:48;;;;;;;10.43;2.20;;;;;;;;;;5006789;28;20186;-82
2023/12/26 06:16:15;;;;;;;7.73;2.10;;;;;;;;;;5019045;28;21341;-83
2023/12/26 06:18:41;;;;;;;7.93;2.07;;;;;;;;;;5038073;28;20247;-83
2023/12/26 06:21:07;;;;;;;6.07;2.07;;;;;;;;;;5047729;28;20253;-83
2023/12/26 06:23:33;;;;;;;7.60;1.90;;;;;;;;;;5009470;28;20249;-83
2023/12/26 06:26:00;;;;;;;7.20;2.03;;;;;;;;;;5010570;28;20193;-83
2023/12/26 06:28:26;;;;;;;7.07;2.23;;;;;;;;;;5038400;28;20182;-83
2023/12/26 06:30:52;;;;;;;8.40;2.00;;;;;;;;;;5012513;28;20359;-83
2023/12/26 06:33:19;;;;;;;6.60;1.90;;;;;;;;;;5030381;28;20193;-83
2023/12/26 06:35:46;;;;;;;7.33;2.17;;;;;;;;;;5011848;28;20206;-83
2023/12/26 06:38:12;;;;;;;6.37;2.00;;;;;;;;;;5023982;28;20226;-82
2023/12/26 06:40:39;;;;;;;8.57;2.10;;;;;;;;;;5030709;28;20599;-83
2023/12/26 06:43:06;;;;;;;7.97;2.17;;;;;;;;;;5027183;28;20335;-83
2023/12/26 06:45:32;;;;;;;8.20;1.90;;;;;;;;;;5024232;28;20620;-83
2023/12/26 06:47:59;;;;;;;6.67;1.80;;;;;;;;;;5010919;28;20173;-82
2023/12/26 06:50:25;;;;;;;5.37;1.87;;;;;;;;;;5024524;28;20190;-83
2023/12/26 06:52:51;;;;;;;6.17;1.80;;;;;;;;;;5045090;28;20238;-83
2023/12/26 06:55:18;;;;;;;8.60;1.90;;;;;;;;;;5022708;28;20190;-82
2023/12/26 06:57:44;;;;;;;7.53;2.17;;;;;;;;;;5027198;28;20194;-82
2023/12/26 07:00:10;;;;;;;6.20;2.00;;;;;;;;;;5041287;28;20294;-82
2023/12/26 07:02:38;;;;;;;5.53;1.93;;;;;;;;;;5028169;28;20190;-80
2023/12/26 07:05:04;;;;;;;5.23;2.10;;;;;;;;;;5023506;28;20194;-83
2023/12/26 07:07:30;;;;;;;6.07;2.10;;;;;;;;;;5025030;28;20252;-82
2023/12/26 07:09:56;;;;;;;8.00;2.07;;;;;;;;;;5044593;28;20181;-83
2023/12/26 07:12:23;;;;;;;6.70;2.17;;;;;;;;;;5032455;28;20199;-84
2023/12/26 07:14:49;;;;;;;5.83;2.17;;;;;;;;;;5028335;28;20293;-81
2023/12/26 07:17:15;;;;;;;4.23;2.00;;;;;;;;;;5011946;28;20199;-82
2023/12/26 07:19:41;;;;;;;3.53;1.80;;;;;;;;;;5002529;28;20491;-82
2023/12/26 07:22:07;;;;;;;5.67;1.90;;;;;;;;;;5011106;28;20262;-82
2023/12/26 07:24:34;;;;;;;5.47;1.90;;;;;;;;;;5020810;28;20186;-83
2023/12/26 07:27:00;;;;;;;8.20;1.97;;;;;;;;;;5015572;28;20190;-83
2023/12/26 07:29:28;;;;;;;5.90;2.00;;;;;;;;;;5021136;28;20186;-83
2023/12/26 07:31:55;;;;;;;7.90;2.60;;;;;;;;;;5012831;28;20202;-81
2023/12/26 07:34:21;;;;;;;5.93;2.03;;;;;;;;;;5029234;28;20667;-81
2023/12/26 07:36:47;;;;;;;5.77;2.00;;;;;;;;;;5014521;28;20271;-82
2023/12/26 07:39:13;;;;;;;5.50;1.93;;;;;;;;;;5027305;28;20214;-82
2023/12/26 07:41:40;;;;;;;5.83;2.00;;;;;;;;;;4992207;28;20665;-82
2023/12/26 07:44:07;;;;;;;4.90;1.87;;;;;;;;;;4990879;28;20187;-83
2023/12/26 07:46:33;;;;;;;5.37;1.87;;;;;;;;;;5032159;28;20240;-81
2023/12/26 07:48:59;;;;;;;4.43;1.80;;;;;;;;;;5035141;28;20724;-81
2023/12/26 07:51:26;;;;;;;6.20;1.90;;;;;;;;;;5009912;28;20216;-78
2023/12/26 07:53:53;;;;;;;5.30;1.90;;;;;;;;;;5008551;28;20238;-77
2023/12/26 07:56:19;;;;;;;6.50;1.90;;;;;;;;;;5029650;28;20195;-78
2023/12/26 07:58:45;;;;;;;6.27;1.70;;;;;;;;;;5006827;28;20554;-79
2023/12/26 08:01:13;;;;;;;3.90;1.50;;;;;;;;;;5024800;28;20327;-78
2023/12/26 08:03:39;;;;;;;5.13;1.60;;;;;;;;;;5010723;28;20210;-81
2023/12/26 08:06:06;;;;;;;6.77;1.93;;;;;;;;;;5006056;28;20517;-76
2023/12/26 08:08:32;;;;;;;6.23;2.00;;;;;;;;;;5006394;28;20179;-77
2023/12/26 08:10:58;;;;;;;4.43;1.40;;;;;;;;;;5030677;28;20738;-77
2023/12/26 08:13:24;;;;;;;4.50;1.57;;;;;;;;;;5003362;28;20195;-77
2023/12/26 08:15:50;;;;;;;4.43;1.77;;;;;;;;;;5012322;28;20214;-77
2023/12/26 08:18:17;;;;;;;4.97;1.63;;;;;;;;;;5006139;28;20301;-75
2023/12/26 08:20:43;;;;;;;3.40;1.60;;;;;;;;;;5027929;28;20218;-81
2023/12/26 08:23:12;;;;;;;4.10;1.63;;;;;;;;;;4993884;28;20187;-80
2023/12/26 08:25:38;;;;;;;7.10;1.70;;;;;;;;;;5011132;28;20322;-75
2023/12/26 08:28:06;;;;;;;6.20;1.60;;;;;;;;;;5007322;28;20559;-76
2023/12/26 08:30:32;;;;;;;5.83;2.80;;;;;;;;;;5003989;28;20206;-76
2023/12/26 08:32:58;;;;;;;4.70;1.67;;;;;;;;;;5025603;28;20265;-77
2023/12/26 08:35:24;;;;;;;3.37;1.60;;;;;;;;;;5024644;28;20195;-77
2023/12/26 08:37:50;;;;;;;4.97;1.70;;;;;;;;;;5006700;28;20471;-76
2023/12/26 08:40:18;;;;;;;4.57;1.60;;;;;;;;;;5022772;28;20214;-78
2023/12/26 08:42:45;;;;;;;3.40;1.47;;;;;;;;;;5019981;28;20190;-76
2023/12/26 08:45:12;;;;;;;2.93;1.40;;;;;;;;;;5023690;28;20241;-77
2023/12/26 08:47:38;;;;;;;4.13;1.53;;;;;;;;;;5003436;28;20194;-77
2023/12/26 08:50:05;;;;;;;2.90;1.50;;;;;;;;;;5017004;28;20764;-77
2023/12/26 08:52:32;;;;;;;3.17;1.60;;;;;;;;;;5022183;28;20211;-77
2023/12/26 08:54:58;;;;;;;3.27;1.40;;;;;;;;;;5017196;28;20182;-77
2023/12/26 08:57:24;;;;;;;4.60;1.23;;;;;;;;;;5018463;28;20179;-77
2023/12/26 08:59:50;;;;;;;4.00;1.30;;;;;;;;;;5001768;28;20273;-77
2023/12/26 09:02:17;;;;;;;2.73;1.23;;;;;;;;;;5025680;28;20574;-76
2023/12/26 09:04:44;;;;;;;3.33;1.50;;;;;;;;;;5025248;28;20554;-76
2023/12/26 09:07:10;;;;;;;4.67;1.40;;;;;;;;;;5024105;28;20258;-77
2023/12/26 09:09:36;;;;;;;2.73;1.30;;;;;;;;;;5019811;28;20282;-76
2023/12/26 09:12:03;;;;;;;3.00;1.20;;;;;;;;;;5023284;28;20543;-75
2023/12/26 09:14:29;;;;;;;2.33;1.53;;;;;;;;;;5007826;28;20568;-76
2023/12/26 09:16:55;;;;;;;3.23;1.60;;;;;;;;;;5023766;28;20186;-76
2023/12/26 09:19:21;;;;;;;3.17;1.53;;;;;;;;;;5023809;28;20183;-77
2023/12/26 09:21:48;;;;;;;3.13;1.40;;;;;;;;;;5019913;28;20214;-75
2023/12/26 09:24:14;;;;;;;2.37;1.20;;;;;;;;;;5019222;28;20175;-77
2023/12/26 09:26:40;;;;;;;5.53;1.50;;;;;;;;;;5031609;28;20547;-75
2023/12/26 09:29:06;;;;;;;3.17;1.77;;;;;;;;;;5026045;28;20207;-76
2023/12/26 09:31:32;;;;;;;3.83;1.60;;;;;;;;;;5027566;28;20206;-75
2023/12/26 09:33:58;;;;;;;4.40;1.40;;;;;;;;;;5029000;28;20277;-75
2023/12/26 09:36:24;;;;;;;2.20;1.37;;;;;;;;;;5024132;28;20301;-75
2023/12/26 09:38:51;;;;;;;3.03;1.40;;;;;;;;;;5009023;28;20205;-74
2023/12/26 09:41:18;;;;;;;1.87;1.20;;;;;;;;;;5026304;28;20268;-75
2023/12/26 09:43:45;;;;;;;2.50;1.10;;;;;;;;;;5022144;28;20191;-74
2023/12/26 09:46:11;;;;;;;1.83;1.23;;;;;;;;;;5024538;28;20555;-74
2023/12/26 09:48:38;;;;;;;3.70;1.27;;;;;;;;;;5023899;28;20194;-76
2023/12/26 09:51:05;;;;;;;2.43;1.33;;;;;;;;;;5019633;28;20268;-77
2023/12/26 09:53:34;;;;;;;1.73;1.00;;;;;;;;;;5003629;28;20228;-76
2023/12/26 09:56:01;;;;;;;2.57;1.20;;;;;;;;;;5022039;28;20277;-76
2023/12/26 09:58:28;;;;;;;3.00;1.20;;;;;;;;;;5019257;28;20175;-75
2023/12/26 10:00:54;;;;;;;2.63;1.60;;;;;;;;;;5011406;28;20617;-78
2023/12/26 10:03:20;;;;;;;2.20;1.33;;;;;;;;;;5018168;28;20179;-77
2023/12/26 10:05:46;;;;;;;4.33;2.70;;;;;;;;;;5023465;28;20194;-74
2023/12/26 10:08:12;;;;;;;3.27;1.50;;;;;;;;;;5017522;28;20526;-74
2023/12/26 10:10:39;;;;;;;2.83;1.60;;;;;;;;;;5019701;28;20201;-74
2023/12/26 10:13:05;;;;;;;2.67;1.30;;;;;;;;;;5022699;28;20191;-75
2023/12/26 10:15:31;;;;;;;2.87;1.37;;;;;;;;;;5015725;28;20270;-75
2023/12/26 10:17:58;;;;;;;4.10;2.20;;;;;;;;;;5016339;28;20217;-76
2023/12/26 10:20:24;;;;;;;3.07;1.80;;;;;;;;;;5020338;28;20570;-80
2023/12/26 10:22:50;;;;;;;2.57;1.40;;;;;;;;;;4990564;28;20191;-80
2023/12/26 10:25:16;;;;;;;1.80;1.20;;;;;;;;;;5009525;28;20202;-77
2023/12/26 10:27:54;;;;;;;2.43;1.20;;;;;;;;;;5020220;28;20212;-79
2023/12/26 10:30:20;;;;;;;2.17;1.23;;;;;;;;;;5016968;28;20229;-77
2023/12/26 10:32:47;;;;;;;3.93;1.40;;;;;;;;;;5018912;28;20190;-75
2023/12/26 10:35:16;;;;;;;2.63;1.50;;;;;;;;;;5017000;28;20187;-77
2023/12/26 10:37:42;;;;;;;3.13;1.50;;;;;;;;;;5016733;28;20368;-84
2023/12/26 10:40:09;;;;;;;2.60;1.50;;;;;;;;;;5011614;28;20283;-78
2023/12/26 10:42:37;;;;;;;3.23;1.97;;;;;;;;;;5028084;28;20206;-76
2023/12/26 10:45:07;;;;;;;2.30;1.33;;;;;;;;;;5025245;28;20262;-77
2023/12/26 10:47:34;;;;;;;2.47;1.30;;;;;;;;;;5039848;28;20206;-78
2023/12/26 10:50:00;;;;;;;2.53;1.53;;;;;;;;;;5010522;28;20191;-77
2023/12/26 10:52:31;;;;;;;2.37;1.20;;;;;;;;;;5025440;28;20771;-77
2023/12/26 10:54:59;;;;;;;3.27;1.90;;;;;;;;;;5028092;28;20195;-78
2023/12/26 10:57:25;;;;;;;3.50;1.60;;;;;;;;;;5026336;28;20615;-77
2023/12/26 13:53:53;;;;;;;3.23;2.20;;;;;;;;;;5022604;28;20182;-74
2023/12/26 13:56:20;;;;;;;3.50;2.13;;;;;;;;;;5025743;28;20588;-74
2023/12/26 13:58:46;;;;;;;3.77;2.37;;;;;;;;;;5025326;28;20187;-74
2023/12/26 14:01:14;;;;;;;5.53;2.10;;;;;;;;;;5021092;28;20221;-74
2023/12/26 14:03:49;;;;;;;4.07;2.20;;;;;;;;;;5024247;28;20186;-73
2023/12/26 14:06:16;;;;;;;4.03;2.07;;;;;;;;;;5030076;28;20181;-75
2023/12/26 14:08:42;;;;;;;5.37;2.03;;;;;;;;;;5023053;28;20179;-76
2023/12/26 14:11:08;;;;;;;4.13;1.97;;;;;;;;;;5026051;28;20211;-76
2023/12/26 14:13:34;;;;;;;4.70;2.10;;;;;;;;;;5020787;28;20186;-75
2023/12/26 14:16:02;;;;;;;3.37;2.10;;;;;;;;;;5018843;28;20186;-74
2023/12/26 14:18:28;;;;;;;3.20;1.93;;;;;;;;;;5023793;28;20269;-72
2023/12/26 14:20:54;;;;;;;3.10;2.00;;;;;;;;;;5024346;28;20202;-74
2023/12/26 14:23:20;;;;;;;4.00;2.47;;;;;;;;;;5027874;28;20609;-72
2023/12/26 14:25:47;;;;;;;3.70;2.27;;;;;;;;;;5027869;28;20183;-73
2023/12/26 14:28:13;;;;;;;3.83;2.00;;;;;;;;;;5028850;28;20650;-72
2023/12/26 14:30:39;;;;;;;4.40;1.93;;;;;;;;;;5022557;28;20202;-72
2023/12/26 14:33:05;;;;;;;4.07;2.13;;;;;;;;;;5025544;28;20718;-71
2023/12/26 14:35:31;;;;;;;3.60;2.10;;;;;;;;;;5028541;28;20210;-74
2023/12/26 14:37:58;;;;;;;4.63;2.23;;;;;;;;;;5020700;28;20356;-74
2023/12/26 14:40:24;;;;;;;3.23;2.00;;;;;;;;;;5026597;28;20213;-75
2023/12/26 14:42:51;;;;;;;3.40;2.30;;;;;;;;;;5018393;28;20187;-75
2023/12/26 14:45:17;;;;;;;2.83;2.00;;;;;;;;;;5026055;28;20190;-75
2023/12/26 14:47:44;;;;;;;2.73;2.20;;;;;;;;;;5023012;28;20198;-76
2023/12/26 14:50:10;;;;;;;4.50;2.10;;;;;;;;;;5020751;28;21426;-75
2023/12/26 14:52:36;;;;;;;4.23;2.23;;;;;;;;;;5025109;28;20372;-72
2023/12/26 14:55:03;;;;;;;3.47;2.17;;;;;;;;;;5022349;28;20186;-76
2023/12/26 14:57:29;;;;;;;3.93;2.10;;;;;;;;;;5027600;28;20715;-75
2023/12/26 14:59:55;;;;;;;4.43;2.07;;;;;;;;;;5013379;28;20380;-81
2023/12/26 15:02:24;;;;;;;4.77;2.60;;;;;;;;;;5040445;28;20222;-81
2023/12/26 15:04:53;;;;;;;4.47;2.53;;;;;;;;;;5011820;28;20182;-81
2023/12/26 15:07:20;;;;;;;4.93;2.70;;;;;;;;;;5037691;28;20201;-81
2023/12/26 15:09:46;;;;;;;3.17;2.00;;;;;;;;;;5033719;28;20184;-81
2023/12/26 15:12:12;;;;;;;3.77;1.90;;;;;;;;;;5009619;28;20237;-80
2023/12/26 15:14:39;;;;;;;2.17;1.97;;;;;;;;;;5024865;28;20249;-81
2023/12/26 15:17:05;;;;;;;3.67;2.23;;;;;;;;;;5015570;28;20182;-78
2023/12/26 15:19:32;;;;;;;2.83;1.93;;;;;;;;;;5012152;28;20189;-77
2023/12/26 15:21:58;;;;;;;3.80;1.90;;;;;;;;;;5024993;28;20289;-79
2023/12/26 15:24:25;;;;;;;3.60;2.20;;;;;;;;;;5010631;28;20195;-78
2023/12/26 15:26:51;;;;;;;3.17;2.10;;;;;;;;;;5015536;28;20197;-80
2023/12/26 15:29:17;;;;;;;6.13;2.70;;;;;;;;;;5033352;28;20285;-82
2023/12/26 15:31:45;;;;;;;4.27;1.93;;;;;;;;;;5005284;28;20276;-84
2023/12/26 15:34:12;;;;;;;2.97;2.10;;;;;;;;;;5011093;28;20198;-82
2023/12/26 15:36:38;;;;;;;4.13;2.40;;;;;;;;;;5022512;28;20188;-83
2023/12/26 15:39:04;;;;;;;4.60;2.90;;;;;;;;;;5017965;28;20191;-83
2023/12/26 15:41:30;;;;;;;5.63;3.10;;;;;;;;;;5001268;28;20225;-83
2023/12/26 15:43:57;;;;;;;4.57;2.50;;;;;;;;;;5020343;28;20201;-82
2023/12/26 15:46:24;;;;;;;6.57;2.77;;;;;;;;;;5004298;28;20182;-82
2023/12/26 15:48:51;;;;;;;4.50;2.67;;;;;;;;;;5033652;28;20239;-82
2023/12/26 15:51:19;;;;;;;5.85;3.05;;;;;;;;;;5015585;28;20437;-83
2023/12/26 15:53:49;;;;;;;6.33;3.23;;;;;;;;;;5007951;28;20274;-83
2023/12/26 15:56:16;;;;;;;5.43;2.70;;;;;;;;;;5010386;28;20246;-83
2023/12/26 15:58:42;;;;;;;4.67;2.73;;;;;;;;;;5027200;28;20186;-83
2023/12/26 16:01:11;;;;;;;4.67;2.70;;;;;;;;;;5007793;28;20245;-83
2023/12/26 16:03:37;;;;;;;5.17;2.40;;;;;;;;;;5025619;28;20639;-83
2023/12/26 16:06:04;;;;;;;6.40;2.90;;;;;;;;;;5003841;28;20648;-83
2023/12/26 16:08:30;;;;;;;4.60;2.80;;;;;;;;;;4991840;28;20361;-83
2023/12/26 16:10:57;;;;;;;6.30;3.20;;;;;;;;;;5005490;28;20855;-83
2023/12/26 16:13:23;;;;;;;4.43;2.77;;;;;;;;;;5016072;28;20195;-83
2023/12/26 16:15:49;;;;;;;4.87;2.50;;;;;;;;;;4988088;28;20661;-83
2023/12/26 16:18:16;;;;;;;4.23;2.67;;;;;;;;;;4997316;28;20207;-83
2023/12/26 16:20:42;;;;;;;3.13;2.60;;;;;;;;;;5003231;28;20263;-83
2023/12/26 16:23:09;;;;;;;3.67;2.70;;;;;;;;;;5023206;28;20201;-83
2023/12/26 16:25:36;;;;;;;3.73;2.57;;;;;;;;;;4987929;28;20636;-82
2023/12/26 16:28:02;;;;;;;2.90;2.23;;;;;;;;;;4998425;28;20537;-83
2023/12/26 16:30:28;;;;;;;2.87;2.23;;;;;;;;;;5007439;28;20230;-83
2023/12/26 16:32:54;;;;;;;4.40;2.30;;;;;;;;;;4990635;28;20195;-83
2023/12/26 16:35:20;;;;;;;4.43;2.53;;;;;;;;;;5021773;28;20871;-83
2023/12/26 16:37:46;;;;;;;3.07;2.40;;;;;;;;;;4999068;28;20576;-82
2023/12/26 16:40:13;;;;;;;2.17;1.97;;;;;;;;;;5008911;28;20206;-83
2023/12/26 16:42:39;;;;;;;3.50;2.40;;;;;;;;;;5026845;28;20182;-83
2023/12/26 16:45:06;;;;;;;4.57;2.40;;;;;;;;;;5023445;28;20266;-83
2023/12/26 16:47:32;;;;;;;4.28;2.55;;;;;;;;;;5013435;28;20432;-83
2023/12/26 16:49:58;;;;;;;3.03;2.17;;;;;;;;;;5026936;28;20206;-83
2023/12/26 16:52:25;;;;;;;4.27;2.33;;;;;;;;;;5020009;28;20222;-82
2023/12/26 16:54:54;;;;;;;3.27;2.67;;;;;;;;;;5011568;28;20614;-83
2023/12/26 16:57:21;;;;;;;3.27;2.30;;;;;;;;;;4987860;28;20282;-83
2023/12/26 16:59:48;;;;;;;3.63;2.57;;;;;;;;;;5024850;28;20195;-83
2023/12/26 17:02:18;;;;;;;3.88;2.60;;;;;;;;;;5008222;28;20401;-83
2023/12/26 17:04:44;;;;;;;4.50;3.17;;;;;;;;;;5024454;28;20652;-83
2023/12/26 17:07:10;;;;;;;3.10;2.80;;;;;;;;;;5005993;28;20757;-83
2023/12/26 17:09:40;;;;;;;4.23;3.37;;;;;;;;;;5005460;28;20253;-83
2023/12/26 17:12:09;;;;;;;6.33;3.27;;;;;;;;;;5022621;28;20206;-82
2023/12/26 17:14:36;;;;;;;4.17;2.90;;;;;;;;;;5000871;28;20183;-82
2023/12/26 17:17:04;;;;;;;18.53;15.50;;;;;;;;;;5005045;28;20257;-83
2023/12/26 17:19:31;;;;;;;7.50;5.20;;;;;;;;;;5008044;28;20614;-83
2023/12/26 17:21:58;;;;;;;6.33;4.67;;;;;;;;;;5039755;28;20228;-83
2023/12/26 17:24:24;;;;;;;5.93;4.30;;;;;;;;;;5004017;28;20237;-83
2023/12/26 17:27:03;;;;;;;9.73;6.07;;;;;;;;;;5013026;28;20680;-83
2023/12/26 17:29:29;;;;;;;7.80;6.27;;;;;;;;;;4995753;28;20191;-83
2023/12/26 17:31:57;;;;;;;7.03;4.57;;;;;;;;;;4989617;28;20642;-83
2023/12/26 17:34:23;;;;;;;11.77;7.80;;;;;;;;;;5003729;28;20220;-83